Terminal Aerodrome Forecast
Issued by NWS Charleston, WV

Home | Current Version | Previous Version | Text Only | Print | Product List | Glossary On
Versions: 1 2 3 4 5 6 7 8 9 10 11 12 13 14 15 16 17 18 19 20 21 22 23 24 25 26 27 28 29 30 31 32 33 34 35 36 37 38 39 40 41 42 43 44 45 46 47 48 49 50
000
FTUS41 KRLX 170855 AAA
TAFPKB
TAF AMD
KPKB 170855Z 1709/1806 VRB03KT P6SM SCT250
     FM171200 19005KT P6SM VCSH BKN180
     FM171500 21009KT P6SM -SHRA VCTS OVC030CB
     FM171800 22008KT 6SM TSRA OVC035CB
     FM180200 23005KT 6SM -SHRA BKN025=

USA.gov is the U.S. government's official web portal to all federal, state and local government web resources and services.